sensor_id;sensor_type;location;lat;lon;timestamp;temperature;humidity
65826;DHT22;52586;-43.152;172.732;2024-01-11T00:00:59;28.00;40.70
65826;DHT22;52586;-43.152;172.732;2024-01-11T00:03:29;28.10;40.80
65826;DHT22;52586;-43.152;172.732;2024-01-11T00:06:02;28.10;40.80
65826;DHT22;52586;-43.152;172.732;2024-01-11T00:08:32;28.10;40.80
65826;DHT22;52586;-43.152;172.732;2024-01-11T00:11:03;28.10;40.90
65826;DHT22;52586;-43.152;172.732;2024-01-11T00:13:34;28.20;41.00
65826;DHT22;52586;-43.152;172.732;2024-01-11T00:16:05;28.20;41.00
65826;DHT22;52586;-43.152;172.732;2024-01-11T00:18:35;28.20;41.00
65826;DHT22;52586;-43.152;172.732;2024-01-11T00:21:08;28.30;41.10
65826;DHT22;52586;-43.152;172.732;2024-01-11T00:23:38;28.30;41.10
65826;DHT22;52586;-43.152;172.732;2024-01-11T00:26:09;28.30;41.10
65826;DHT22;52586;-43.152;172.732;2024-01-11T00:28:42;28.30;41.10
65826;DHT22;52586;-43.152;172.732;2024-01-11T00:31:12;28.40;41.10
65826;DHT22;52586;-43.152;172.732;2024-01-11T00:33:43;28.40;41.10
65826;DHT22;52586;-43.152;172.732;2024-01-11T00:36:20;28.40;41.10
65826;DHT22;52586;-43.152;172.732;2024-01-11T00:38:51;28.50;41.00
65826;DHT22;52586;-43.152;172.732;2024-01-11T00:41:22;28.50;41.00
65826;DHT22;52586;-43.152;172.732;2024-01-11T00:43:52;28.50;41.10
65826;DHT22;52586;-43.152;172.732;2024-01-11T00:46:23;28.60;41.10
65826;DHT22;52586;-43.152;172.732;2024-01-11T00:48:54;28.60;41.00
65826;DHT22;52586;-43.152;172.732;2024-01-11T00:51:26;28.60;41.00
65826;DHT22;52586;-43.152;172.732;2024-01-11T00:53:57;28.70;41.00
65826;DHT22;52586;-43.152;172.732;2024-01-11T00:56:27;28.70;40.90
65826;DHT22;52586;-43.152;172.732;2024-01-11T00:58:58;28.70;41.00
65826;DHT22;52586;-43.152;172.732;2024-01-11T01:01:28;28.80;41.00
65826;DHT22;52586;-43.152;172.732;2024-01-11T01:03:59;28.80;41.10
65826;DHT22;52586;-43.152;172.732;2024-01-11T01:06:32;28.80;40.90
65826;DHT22;52586;-43.152;172.732;2024-01-11T01:09:03;28.80;40.80
65826;DHT22;52586;-43.152;172.732;2024-01-11T01:11:33;28.80;40.40
65826;DHT22;52586;-43.152;172.732;2024-01-11T01:14:04;28.80;40.30
65826;DHT22;52586;-43.152;172.732;2024-01-11T01:16:35;28.80;40.10
65826;DHT22;52586;-43.152;172.732;2024-01-11T01:19:05;28.80;39.90
65826;DHT22;52586;-43.152;172.732;2024-01-11T01:21:38;28.80;39.80
65826;DHT22;52586;-43.152;172.732;2024-01-11T01:24:08;28.80;39.70
65826;DHT22;52586;-43.152;172.732;2024-01-11T01:26:39;28.90;39.80
65826;DHT22;52586;-43.152;172.732;2024-01-11T01:29:10;28.90;39.70
65826;DHT22;52586;-43.152;172.732;2024-01-11T01:31:40;28.90;39.60
65826;DHT22;52586;-43.152;172.732;2024-01-11T01:34:11;28.90;39.50
65826;DHT22;52586;-43.152;172.732;2024-01-11T01:36:44;28.90;39.40
65826;DHT22;52586;-43.152;172.732;2024-01-11T01:39:15;28.90;39.20
65826;DHT22;52586;-43.152;172.732;2024-01-11T01:41:45;28.90;39.20
65826;DHT22;52586;-43.152;172.732;2024-01-11T01:44:16;29.00;39.20
65826;DHT22;52586;-43.152;172.732;2024-01-11T01:46:47;29.00;39.30
65826;DHT22;52586;-43.152;172.732;2024-01-11T01:49:18;29.00;39.20
65826;DHT22;52586;-43.152;172.732;2024-01-11T01:51:52;29.10;39.40
65826;DHT22;52586;-43.152;172.732;2024-01-11T01:54:24;29.10;39.30
65826;DHT22;52586;-43.152;172.732;2024-01-11T01:56:55;29.10;39.20
65826;DHT22;52586;-43.152;172.732;2024-01-11T01:59:27;29.10;39.20
65826;DHT22;52586;-43.152;172.732;2024-01-11T02:01:58;29.20;39.10
65826;DHT22;52586;-43.152;172.732;2024-01-11T02:04:31;29.20;39.20
65826;DHT22;52586;-43.152;172.732;2024-01-11T02:07:05;29.30;39.20
65826;DHT22;52586;-43.152;172.732;2024-01-11T02:09:38;29.30;39.20
65826;DHT22;52586;-43.152;172.732;2024-01-11T02:12:08;29.30;39.10
65826;DHT22;52586;-43.152;172.732;2024-01-11T02:14:41;29.30;38.70
65826;DHT22;52586;-43.152;172.732;2024-01-11T02:17:12;29.30;38.50
65826;DHT22;52586;-43.152;172.732;2024-01-11T02:19:42;29.30;38.50
65826;DHT22;52586;-43.152;172.732;2024-01-11T02:22:19;29.30;38.40
65826;DHT22;52586;-43.152;172.732;2024-01-11T02:24:53;29.30;38.70
65826;DHT22;52586;-43.152;172.732;2024-01-11T02:27:25;29.30;38.00
65826;DHT22;52586;-43.152;172.732;2024-01-11T02:29:56;29.30;37.80
65826;DHT22;52586;-43.152;172.732;2024-01-11T02:32:26;29.30;37.90
65826;DHT22;52586;-43.152;172.732;2024-01-11T02:34:57;29.30;37.90
65826;DHT22;52586;-43.152;172.732;2024-01-11T02:37:27;29.30;37.70
65826;DHT22;52586;-43.152;172.732;2024-01-11T02:40:00;29.30;37.80
65826;DHT22;52586;-43.152;172.732;2024-01-11T02:42:31;29.40;37.80
65826;DHT22;52586;-43.152;172.732;2024-01-11T02:45:02;29.40;37.60
65826;DHT22;52586;-43.152;172.732;2024-01-11T02:47:33;29.40;37.50
65826;DHT22;52586;-43.152;172.732;2024-01-11T02:50:04;29.50;37.60
65826;DHT22;52586;-43.152;172.732;2024-01-11T02:52:34;29.50;37.60
65826;DHT22;52586;-43.152;172.732;2024-01-11T02:55:07;29.50;37.60
65826;DHT22;52586;-43.152;172.732;2024-01-11T02:57:38;29.60;37.60
65826;DHT22;52586;-43.152;172.732;2024-01-11T03:00:10;29.60;37.60
65826;DHT22;52586;-43.152;172.732;2024-01-11T03:02:40;29.60;37.60
65826;DHT22;52586;-43.152;172.732;2024-01-11T03:05:11;29.70;37.70
65826;DHT22;52586;-43.152;172.732;2024-01-11T03:07:41;29.70;37.70
65826;DHT22;52586;-43.152;172.732;2024-01-11T03:10:14;29.80;37.80
65826;DHT22;52586;-43.152;172.732;2024-01-11T03:12:45;29.80;37.80
65826;DHT22;52586;-43.152;172.732;2024-01-11T03:15:16;29.80;37.90
65826;DHT22;52586;-43.152;172.732;2024-01-11T03:17:47;29.90;38.00
65826;DHT22;52586;-43.152;172.732;2024-01-11T03:20:18;29.90;38.10
65826;DHT22;52586;-43.152;172.732;2024-01-11T03:22:52;29.90;38.10
65826;DHT22;52586;-43.152;172.732;2024-01-11T03:25:24;30.00;38.20
65826;DHT22;52586;-43.152;172.732;2024-01-11T03:27:55;30.00;38.20
65826;DHT22;52586;-43.152;172.732;2024-01-11T03:30:26;30.10;38.30
65826;DHT22;52586;-43.152;172.732;2024-01-11T03:32:56;30.20;38.30
65826;DHT22;52586;-43.152;172.732;2024-01-11T03:35:27;30.20;38.40
65826;DHT22;52586;-43.152;172.732;2024-01-11T03:37:58;30.20;38.40
65826;DHT22;52586;-43.152;172.732;2024-01-11T03:40:30;30.30;38.50
65826;DHT22;52586;-43.152;172.732;2024-01-11T03:43:01;30.30;38.40
65826;DHT22;52586;-43.152;172.732;2024-01-11T03:45:31;30.30;38.60
65826;DHT22;52586;-43.152;172.732;2024-01-11T03:48:02;30.40;38.50
65826;DHT22;52586;-43.152;172.732;2024-01-11T03:50:33;30.40;38.60
65826;DHT22;52586;-43.152;172.732;2024-01-11T03:53:03;30.40;38.50
65826;DHT22;52586;-43.152;172.732;2024-01-11T03:55:36;30.40;39.20
65826;DHT22;52586;-43.152;172.732;2024-01-11T03:58:07;30.50;38.70
65826;DHT22;52586;-43.152;172.732;2024-01-11T04:00:37;30.50;38.70
65826;DHT22;52586;-43.152;172.732;2024-01-11T04:03:08;30.50;38.70
65826;DHT22;52586;-43.152;172.732;2024-01-11T04:05:39;30.50;38.60
65826;DHT22;52586;-43.152;172.732;2024-01-11T04:08:09;30.60;38.70
65826;DHT22;52586;-43.152;172.732;2024-01-11T04:10:42;30.60;38.70
65826;DHT22;52586;-43.152;172.732;2024-01-11T04:13:12;30.60;38.70
65826;DHT22;52586;-43.152;172.732;2024-01-11T04:15:43;30.60;38.60
65826;DHT22;52586;-43.152;172.732;2024-01-11T04:18:14;30.70;38.60
65826;DHT22;52586;-43.152;172.732;2024-01-11T04:20:44;30.70;38.50
65826;DHT22;52586;-43.152;172.732;2024-01-11T04:23:15;30.80;38.70
65826;DHT22;52586;-43.152;172.732;2024-01-11T04:25:47;30.80;38.50
65826;DHT22;52586;-43.152;172.732;2024-01-11T04:28:18;30.80;38.50
65826;DHT22;52586;-43.152;172.732;2024-01-11T04:30:49;30.80;38.50
65826;DHT22;52586;-43.152;172.732;2024-01-11T04:33:19;30.90;38.60
65826;DHT22;52586;-43.152;172.732;2024-01-11T04:35:50;30.90;38.60
65826;DHT22;52586;-43.152;172.732;2024-01-11T04:38:20;30.90;38.50
65826;DHT22;52586;-43.152;172.732;2024-01-11T04:40:53;30.90;38.50
65826;DHT22;52586;-43.152;172.732;2024-01-11T04:43:23;30.90;38.40
65826;DHT22;52586;-43.152;172.732;2024-01-11T04:45:54;30.90;38.40
65826;DHT22;52586;-43.152;172.732;2024-01-11T04:48:25;31.00;38.40
65826;DHT22;52586;-43.152;172.732;2024-01-11T04:50:55;31.00;38.50
65826;DHT22;52586;-43.152;172.732;2024-01-11T04:53:26;31.00;38.40
65826;DHT22;52586;-43.152;172.732;2024-01-11T04:55:58;31.10;39.10
65826;DHT22;52586;-43.152;172.732;2024-01-11T04:58:29;31.10;38.40
65826;DHT22;52586;-43.152;172.732;2024-01-11T05:01:00;31.10;38.40
65826;DHT22;52586;-43.152;172.732;2024-01-11T05:03:31;31.10;38.50
65826;DHT22;52586;-43.152;172.732;2024-01-11T05:06:02;31.20;38.40
65826;DHT22;52586;-43.152;172.732;2024-01-11T05:08:32;31.10;38.90
65826;DHT22;52586;-43.152;172.732;2024-01-11T05:11:05;31.20;38.30
65826;DHT22;52586;-43.152;172.732;2024-01-11T05:13:35;31.20;38.30
65826;DHT22;52586;-43.152;172.732;2024-01-11T05:16:06;31.20;38.30
65826;DHT22;52586;-43.152;172.732;2024-01-11T05:18:37;31.20;38.40
65826;DHT22;52586;-43.152;172.732;2024-01-11T05:21:07;31.20;38.40
65826;DHT22;52586;-43.152;172.732;2024-01-11T05:23:38;31.20;38.90
65826;DHT22;52586;-43.152;172.732;2024-01-11T05:26:12;31.20;38.70
65826;DHT22;52586;-43.152;172.732;2024-01-11T05:28:43;31.30;38.80
65826;DHT22;52586;-43.152;172.732;2024-01-11T05:31:14;31.20;38.70
65826;DHT22;52586;-43.152;172.732;2024-01-11T05:33:45;31.30;38.70
65826;DHT22;52586;-43.152;172.732;2024-01-11T05:36:15;31.20;38.60
65826;DHT22;52586;-43.152;172.732;2024-01-11T05:38:46;31.30;38.70
65826;DHT22;52586;-43.152;172.732;2024-01-11T05:41:19;31.30;38.80
65826;DHT22;52586;-43.152;172.732;2024-01-11T05:43:49;31.30;38.80
65826;DHT22;52586;-43.152;172.732;2024-01-11T05:46:20;31.30;38.80
65826;DHT22;52586;-43.152;172.732;2024-01-11T05:48:50;31.30;38.90
65826;DHT22;52586;-43.152;172.732;2024-01-11T05:51:21;31.30;38.90
65826;DHT22;52586;-43.152;172.732;2024-01-11T05:53:52;31.30;38.90
65826;DHT22;52586;-43.152;172.732;2024-01-11T05:56:24;31.30;39.00
65826;DHT22;52586;-43.152;172.732;2024-01-11T05:58:55;31.30;39.00
65826;DHT22;52586;-43.152;172.732;2024-01-11T06:01:26;31.30;39.00
65826;DHT22;52586;-43.152;172.732;2024-01-11T06:03:57;31.30;39.10
65826;DHT22;52586;-43.152;172.732;2024-01-11T06:06:27;31.40;39.00
65826;DHT22;52586;-43.152;172.732;2024-01-11T06:08:58;31.40;38.90
65826;DHT22;52586;-43.152;172.732;2024-01-11T06:11:33;31.40;39.00
65826;DHT22;52586;-43.152;172.732;2024-01-11T06:14:04;31.30;38.80
65826;DHT22;52586;-43.152;172.732;2024-01-11T06:16:35;31.30;38.80
65826;DHT22;52586;-43.152;172.732;2024-01-11T06:19:05;31.40;38.90
65826;DHT22;52586;-43.152;172.732;2024-01-11T06:21:37;31.40;38.90
65826;DHT22;52586;-43.152;172.732;2024-01-11T06:24:07;31.30;38.70
65826;DHT22;52586;-43.152;172.732;2024-01-11T06:26:40;31.40;38.90
65826;DHT22;52586;-43.152;172.732;2024-01-11T06:29:10;31.30;38.70
65826;DHT22;52586;-43.152;172.732;2024-01-11T06:31:41;31.40;38.70
65826;DHT22;52586;-43.152;172.732;2024-01-11T06:34:11;31.30;38.60
65826;DHT22;52586;-43.152;172.732;2024-01-11T06:36:42;31.40;38.70
65826;DHT22;52586;-43.152;172.732;2024-01-11T06:39:13;31.40;38.60
65826;DHT22;52586;-43.152;172.732;2024-01-11T06:41:46;31.30;38.50
65826;DHT22;52586;-43.152;172.732;2024-01-11T06:44:17;31.30;38.60
65826;DHT22;52586;-43.152;172.732;2024-01-11T06:46:50;31.40;38.70
65826;DHT22;52586;-43.152;172.732;2024-01-11T06:49:21;31.40;38.50
65826;DHT22;52586;-43.152;172.732;2024-01-11T06:51:51;31.40;38.40
65826;DHT22;52586;-43.152;172.732;2024-01-11T06:54:22;31.40;38.10
65826;DHT22;52586;-43.152;172.732;2024-01-11T06:56:55;31.40;38.00
65826;DHT22;52586;-43.152;172.732;2024-01-11T06:59:25;31.40;37.90
65826;DHT22;52586;-43.152;172.732;2024-01-11T07:01:56;31.40;38.00
65826;DHT22;52586;-43.152;172.732;2024-01-11T07:04:26;31.40;38.00
65826;DHT22;52586;-43.152;172.732;2024-01-11T07:06:57;31.40;37.90
65826;DHT22;52586;-43.152;172.732;2024-01-11T07:09:28;31.40;37.80
65826;DHT22;52586;-43.152;172.732;2024-01-11T07:12:00;31.40;37.60
65826;DHT22;52586;-43.152;172.732;2024-01-11T07:14:31;31.30;37.50
65826;DHT22;52586;-43.152;172.732;2024-01-11T07:17:01;31.30;37.70
65826;DHT22;52586;-43.152;172.732;2024-01-11T07:19:32;31.30;37.90
65826;DHT22;52586;-43.152;172.732;2024-01-11T07:22:04;31.30;37.90
65826;DHT22;52586;-43.152;172.732;2024-01-11T07:24:35;31.30;37.80
65826;DHT22;52586;-43.152;172.732;2024-01-11T07:27:08;31.20;37.70
65826;DHT22;52586;-43.152;172.732;2024-01-11T07:29:39;31.20;37.60
65826;DHT22;52586;-43.152;172.732;2024-01-11T07:32:10;31.20;37.50
65826;DHT22;52586;-43.152;172.732;2024-01-11T07:34:40;31.20;37.40
65826;DHT22;52586;-43.152;172.732;2024-01-11T07:37:11;31.20;37.30
65826;DHT22;52586;-43.152;172.732;2024-01-11T07:39:41;31.10;37.10
65826;DHT22;52586;-43.152;172.732;2024-01-11T07:42:15;31.10;37.00
65826;DHT22;52586;-43.152;172.732;2024-01-11T07:44:46;31.10;36.80
65826;DHT22;52586;-43.152;172.732;2024-01-11T07:47:17;31.10;36.80
65826;DHT22;52586;-43.152;172.732;2024-01-11T07:49:48;31.10;36.80
65826;DHT22;52586;-43.152;172.732;2024-01-11T07:52:18;31.00;36.70
65826;DHT22;52586;-43.152;172.732;2024-01-11T07:54:49;31.00;36.60
65826;DHT22;52586;-43.152;172.732;2024-01-11T07:57:23;31.00;36.50
65826;DHT22;52586;-43.152;172.732;2024-01-11T07:59:54;31.00;36.50
65826;DHT22;52586;-43.152;172.732;2024-01-11T08:02:26;31.00;36.50
65826;DHT22;52586;-43.152;172.732;2024-01-11T08:04:57;30.90;36.40
65826;DHT22;52586;-43.152;172.732;2024-01-11T08:07:28;30.90;36.30
65826;DHT22;52586;-43.152;172.732;2024-01-11T08:09:59;30.90;36.30
65826;DHT22;52586;-43.152;172.732;2024-01-11T08:12:33;30.80;36.10
65826;DHT22;52586;-43.152;172.732;2024-01-11T08:15:04;30.80;36.10
65826;DHT22;52586;-43.152;172.732;2024-01-11T08:17:36;30.80;36.10
65826;DHT22;52586;-43.152;172.732;2024-01-11T08:20:07;30.70;36.10
65826;DHT22;52586;-43.152;172.732;2024-01-11T08:22:41;30.70;36.10
65826;DHT22;52586;-43.152;172.732;2024-01-11T08:25:11;30.60;36.00
65826;DHT22;52586;-43.152;172.732;2024-01-11T08:27:44;30.60;36.10
65826;DHT22;52586;-43.152;172.732;2024-01-11T08:30:15;30.60;36.10
65826;DHT22;52586;-43.152;172.732;2024-01-11T08:32:46;30.50;36.10
65826;DHT22;52586;-43.152;172.732;2024-01-11T08:35:17;30.50;36.20
65826;DHT22;52586;-43.152;172.732;2024-01-11T08:37:47;30.50;36.20
65826;DHT22;52586;-43.152;172.732;2024-01-11T08:40:18;30.40;36.10
65826;DHT22;52586;-43.152;172.732;2024-01-11T08:42:50;30.40;36.20
65826;DHT22;52586;-43.152;172.732;2024-01-11T08:45:21;30.40;36.20
65826;DHT22;52586;-43.152;172.732;2024-01-11T08:47:52;30.40;36.20
65826;DHT22;52586;-43.152;172.732;2024-01-11T08:50:22;30.30;36.20
65826;DHT22;52586;-43.152;172.732;2024-01-11T08:52:53;30.30;36.20
65826;DHT22;52586;-43.152;172.732;2024-01-11T08:55:24;30.30;36.20
65826;DHT22;52586;-43.152;172.732;2024-01-11T08:57:56;30.30;36.20
65826;DHT22;52586;-43.152;172.732;2024-01-11T09:00:28;30.30;36.20
65826;DHT22;52586;-43.152;172.732;2024-01-11T09:02:58;30.20;36.10
65826;DHT22;52586;-43.152;172.732;2024-01-11T09:05:29;30.20;36.10
65826;DHT22;52586;-43.152;172.732;2024-01-11T09:07:59;30.20;36.10
65826;DHT22;52586;-43.152;172.732;2024-01-11T09:10:30;30.10;36.10
65826;DHT22;52586;-43.152;172.732;2024-01-11T09:13:03;30.10;36.80
65826;DHT22;52586;-43.152;172.732;2024-01-11T09:15:33;30.10;36.10
65826;DHT22;52586;-43.152;172.732;2024-01-11T09:18:04;30.10;36.10
65826;DHT22;52586;-43.152;172.732;2024-01-11T09:20:35;30.10;36.20
65826;DHT22;52586;-43.152;172.732;2024-01-11T09:23:06;30.00;36.20
65826;DHT22;52586;-43.152;172.732;2024-01-11T09:25:36;30.00;36.20
65826;DHT22;52586;-43.152;172.732;2024-01-11T09:28:09;30.00;36.20
65826;DHT22;52586;-43.152;172.732;2024-01-11T09:30:39;29.90;36.20
65826;DHT22;52586;-43.152;172.732;2024-01-11T09:33:10;29.90;36.20
65826;DHT22;52586;-43.152;172.732;2024-01-11T09:35:41;29.90;36.20
65826;DHT22;52586;-43.152;172.732;2024-01-11T09:38:11;29.80;36.20
65826;DHT22;52586;-43.152;172.732;2024-01-11T09:40:42;29.80;36.30
65826;DHT22;52586;-43.152;172.732;2024-01-11T09:43:15;29.80;36.30
65826;DHT22;52586;-43.152;172.732;2024-01-11T09:45:46;29.70;36.30
65826;DHT22;52586;-43.152;172.732;2024-01-11T09:48:19;29.70;36.40
65826;DHT22;52586;-43.152;172.732;2024-01-11T09:50:51;29.70;36.50
65826;DHT22;52586;-43.152;172.732;2024-01-11T09:53:22;29.70;36.60
65826;DHT22;52586;-43.152;172.732;2024-01-11T09:55:55;29.70;36.60
65826;DHT22;52586;-43.152;172.732;2024-01-11T09:58:28;29.70;36.60
65826;DHT22;52586;-43.152;172.732;2024-01-11T10:00:59;29.70;36.70
65826;DHT22;52586;-43.152;172.732;2024-01-11T10:03:30;29.60;36.60
65826;DHT22;52586;-43.152;172.732;2024-01-11T10:06:01;29.60;36.70
65826;DHT22;52586;-43.152;172.732;2024-01-11T10:08:32;29.60;36.80
65826;DHT22;52586;-43.152;172.732;2024-01-11T10:11:03;29.50;36.70
65826;DHT22;52586;-43.152;172.732;2024-01-11T10:13:37;29.60;36.90
65826;DHT22;52586;-43.152;172.732;2024-01-11T10:16:08;29.60;36.90
65826;DHT22;52586;-43.152;172.732;2024-01-11T10:18:41;29.50;36.80
65826;DHT22;52586;-43.152;172.732;2024-01-11T10:21:12;29.50;36.80
65826;DHT22;52586;-43.152;172.732;2024-01-11T10:23:43;29.40;36.80
65826;DHT22;52586;-43.152;172.732;2024-01-11T10:26:15;29.40;36.80
65826;DHT22;52586;-43.152;172.732;2024-01-11T10:28:48;29.40;36.90
65826;DHT22;52586;-43.152;172.732;2024-01-11T10:31:18;29.40;36.90
65826;DHT22;52586;-43.152;172.732;2024-01-11T10:33:49;29.30;36.80
65826;DHT22;52586;-43.152;172.732;2024-01-11T10:36:20;29.30;36.90
65826;DHT22;52586;-43.152;172.732;2024-01-11T10:38:51;29.30;36.90
65826;DHT22;52586;-43.152;172.732;2024-01-11T10:41:24;29.30;37.00
65826;DHT22;52586;-43.152;172.732;2024-01-11T10:43:59;29.20;36.90
65826;DHT22;52586;-43.152;172.732;2024-01-11T10:46:32;29.20;37.00
65826;DHT22;52586;-43.152;172.732;2024-01-11T10:49:05;29.20;37.10
65826;DHT22;52586;-43.152;172.732;2024-01-11T10:51:36;29.20;37.80
65826;DHT22;52586;-43.152;172.732;2024-01-11T10:54:09;29.20;37.20
65826;DHT22;52586;-43.152;172.732;2024-01-11T10:56:43;29.10;37.20
65826;DHT22;52586;-43.152;172.732;2024-01-11T10:59:18;29.10;37.30
65826;DHT22;52586;-43.152;172.732;2024-01-11T11:01:53;29.10;37.30
65826;DHT22;52586;-43.152;172.732;2024-01-11T11:04:26;29.10;37.40
65826;DHT22;52586;-43.152;172.732;2024-01-11T11:06:58;29.10;37.30
65826;DHT22;52586;-43.152;172.732;2024-01-11T11:09:31;29.00;37.30
65826;DHT22;52586;-43.152;172.732;2024-01-11T11:12:03;29.00;37.30
65826;DHT22;52586;-43.152;172.732;2024-01-11T11:14:36;29.00;37.30
65826;DHT22;52586;-43.152;172.732;2024-01-11T11:17:08;28.90;37.30
65826;DHT22;52586;-43.152;172.732;2024-01-11T11:19:39;28.90;37.30
65826;DHT22;52586;-43.152;172.732;2024-01-11T11:22:09;28.90;37.30
65826;DHT22;52586;-43.152;172.732;2024-01-11T11:24:43;28.90;37.40
65826;DHT22;52586;-43.152;172.732;2024-01-11T11:27:15;28.90;37.40
65826;DHT22;52586;-43.152;172.732;2024-01-11T11:29:50;28.80;37.40
65826;DHT22;52586;-43.152;172.732;2024-01-11T11:32:35;28.90;37.50
65826;DHT22;52586;-43.152;172.732;2024-01-11T11:35:07;28.80;37.40
65826;DHT22;52586;-43.152;172.732;2024-01-11T11:37:38;28.80;37.50
65826;DHT22;52586;-43.152;172.732;2024-01-11T11:40:11;28.70;37.50
65826;DHT22;52586;-43.152;172.732;2024-01-11T11:42:41;28.70;37.60
65826;DHT22;52586;-43.152;172.732;2024-01-11T11:45:25;28.70;37.70
65826;DHT22;52586;-43.152;172.732;2024-01-11T11:47:56;28.70;37.80
65826;DHT22;52586;-43.152;172.732;2024-01-11T11:50:26;28.70;37.80
65826;DHT22;52586;-43.152;172.732;2024-01-11T11:52:57;28.70;37.90
65826;DHT22;52586;-43.152;172.732;2024-01-11T11:55:28;28.70;37.90
65826;DHT22;52586;-43.152;172.732;2024-01-11T11:57:59;28.60;37.90
65826;DHT22;52586;-43.152;172.732;2024-01-11T12:00:30;28.60;37.90
65826;DHT22;52586;-43.152;172.732;2024-01-11T12:03:03;28.60;37.90
65826;DHT22;52586;-43.152;172.732;2024-01-11T12:05:34;28.60;37.90
65826;DHT22;52586;-43.152;172.732;2024-01-11T12:08:08;28.60;38.00
65826;DHT22;52586;-43.152;172.732;2024-01-11T12:10:39;28.60;38.00
65826;DHT22;52586;-43.152;172.732;2024-01-11T12:13:10;28.60;38.20
65826;DHT22;52586;-43.152;172.732;2024-01-11T12:15:43;28.60;38.10
65826;DHT22;52586;-43.152;172.732;2024-01-11T12:18:14;28.60;38.10
65826;DHT22;52586;-43.152;172.732;2024-01-11T12:20:44;28.50;38.10
65826;DHT22;52586;-43.152;172.732;2024-01-11T12:23:15;28.50;38.10
65826;DHT22;52586;-43.152;172.732;2024-01-11T12:25:46;28.50;38.20
65826;DHT22;52586;-43.152;172.732;2024-01-11T12:28:17;28.50;38.20
65826;DHT22;52586;-43.152;172.732;2024-01-11T12:30:50;28.50;38.30
65826;DHT22;52586;-43.152;172.732;2024-01-11T12:33:20;28.40;38.20
65826;DHT22;52586;-43.152;172.732;2024-01-11T12:35:51;28.40;38.30
65826;DHT22;52586;-43.152;172.732;2024-01-11T12:38:22;28.40;38.40
65826;DHT22;52586;-43.152;172.732;2024-01-11T12:40:53;28.40;38.40
65826;DHT22;52586;-43.152;172.732;2024-01-11T12:43:24;28.40;38.40
65826;DHT22;52586;-43.152;172.732;2024-01-11T12:45:56;28.40;38.50
65826;DHT22;52586;-43.152;172.732;2024-01-11T12:48:27;28.30;38.50
65826;DHT22;52586;-43.152;172.732;2024-01-11T12:50:57;28.30;38.50
65826;DHT22;52586;-43.152;172.732;2024-01-11T12:53:28;28.30;38.60
65826;DHT22;52586;-43.152;172.732;2024-01-11T12:56:05;28.30;38.60
65826;DHT22;52586;-43.152;172.732;2024-01-11T12:58:38;28.30;39.20
65826;DHT22;52586;-43.152;172.732;2024-01-11T13:01:10;28.30;38.70
65826;DHT22;52586;-43.152;172.732;2024-01-11T13:03:45;28.30;38.70
65826;DHT22;52586;-43.152;172.732;2024-01-11T13:06:16;28.30;38.70
65826;DHT22;52586;-43.152;172.732;2024-01-11T13:08:47;28.20;38.60
65826;DHT22;52586;-43.152;172.732;2024-01-11T13:11:18;28.20;38.70
65826;DHT22;52586;-43.152;172.732;2024-01-11T13:13:49;28.20;38.70
65826;DHT22;52586;-43.152;172.732;2024-01-11T13:16:21;28.20;38.80
65826;DHT22;52586;-43.152;172.732;2024-01-11T13:18:52;28.20;38.80
65826;DHT22;52586;-43.152;172.732;2024-01-11T13:21:22;28.20;38.80
65826;DHT22;52586;-43.152;172.732;2024-01-11T13:23:53;28.20;38.90
65826;DHT22;52586;-43.152;172.732;2024-01-11T13:26:24;28.20;38.90
65826;DHT22;52586;-43.152;172.732;2024-01-11T13:28:55;28.20;39.00
65826;DHT22;52586;-43.152;172.732;2024-01-11T13:31:27;28.10;39.00
65826;DHT22;52586;-43.152;172.732;2024-01-11T13:33:58;28.10;39.10
65826;DHT22;52586;-43.152;172.732;2024-01-11T13:36:28;28.10;39.10
65826;DHT22;52586;-43.152;172.732;2024-01-11T13:38:59;28.10;39.10
65826;DHT22;52586;-43.152;172.732;2024-01-11T13:41:29;28.10;39.20
65826;DHT22;52586;-43.152;172.732;2024-01-11T13:44:00;28.00;39.10
65826;DHT22;52586;-43.152;172.732;2024-01-11T13:46:35;28.10;39.20
65826;DHT22;52586;-43.152;172.732;2024-01-11T13:49:05;28.00;39.10
65826;DHT22;52586;-43.152;172.732;2024-01-11T13:51:36;28.00;39.20
65826;DHT22;52586;-43.152;172.732;2024-01-11T13:54:07;28.00;39.20
65826;DHT22;52586;-43.152;172.732;2024-01-11T13:56:37;28.00;39.20
65826;DHT22;52586;-43.152;172.732;2024-01-11T13:59:08;27.90;39.20
65826;DHT22;52586;-43.152;172.732;2024-01-11T14:01:41;27.90;39.30
65826;DHT22;52586;-43.152;172.732;2024-01-11T14:04:11;27.90;39.30
65826;DHT22;52586;-43.152;172.732;2024-01-11T14:06:42;27.90;39.30
65826;DHT22;52586;-43.152;172.732;2024-01-11T14:09:12;27.90;39.30
65826;DHT22;52586;-43.152;172.732;2024-01-11T14:11:44;27.80;39.30
65826;DHT22;52586;-43.152;172.732;2024-01-11T14:14:16;27.80;39.30
65826;DHT22;52586;-43.152;172.732;2024-01-11T14:16:50;27.80;39.30
65826;DHT22;52586;-43.152;172.732;2024-01-11T14:19:21;27.80;39.40
65826;DHT22;52586;-43.152;172.732;2024-01-11T14:21:51;27.80;39.40
65826;DHT22;52586;-43.152;172.732;2024-01-11T14:24:22;27.80;39.50
65826;DHT22;52586;-43.152;172.732;2024-01-11T14:26:53;27.70;39.50
65826;DHT22;52586;-43.152;172.732;2024-01-11T14:29:23;27.70;39.60
65826;DHT22;52586;-43.152;172.732;2024-01-11T14:31:56;27.60;39.70
65826;DHT22;52586;-43.152;172.732;2024-01-11T14:34:26;27.60;39.80
65826;DHT22;52586;-43.152;172.732;2024-01-11T14:37:00;27.60;39.90
65826;DHT22;52586;-43.152;172.732;2024-01-11T14:39:30;27.60;40.00
65826;DHT22;52586;-43.152;172.732;2024-01-11T14:42:01;27.60;40.10
65826;DHT22;52586;-43.152;172.732;2024-01-11T14:44:31;27.60;40.30
65826;DHT22;52586;-43.152;172.732;2024-01-11T14:47:04;27.60;40.40
65826;DHT22;52586;-43.152;172.732;2024-01-11T14:49:35;27.50;40.50
65826;DHT22;52586;-43.152;172.732;2024-01-11T14:52:06;27.50;40.50
65826;DHT22;52586;-43.152;172.732;2024-01-11T14:54:36;27.50;40.70
65826;DHT22;52586;-43.152;172.732;2024-01-11T14:57:07;27.50;40.80
65826;DHT22;52586;-43.152;172.732;2024-01-11T14:59:38;27.50;40.80
65826;DHT22;52586;-43.152;172.732;2024-01-11T15:02:10;27.40;40.90
65826;DHT22;52586;-43.152;172.732;2024-01-11T15:04:41;27.40;41.00
65826;DHT22;52586;-43.152;172.732;2024-01-11T15:07:12;27.40;41.10
65826;DHT22;52586;-43.152;172.732;2024-01-11T15:09:42;27.40;41.20
65826;DHT22;52586;-43.152;172.732;2024-01-11T15:12:13;27.30;41.20